createdAt,value
2018-07-14T00:02:39.980Z,99.90
2018-07-14T00:07:43.297Z,99.90
2018-07-14T00:12:46.927Z,99.90
2018-07-14T00:17:51.008Z,99.90
2018-07-14T00:22:54.618Z,99.90
2018-07-14T00:27:58.161Z,99.90
2018-07-14T00:33:01.928Z,99.90
2018-07-14T00:38:05.538Z,99.90
2018-07-14T00:43:09.556Z,99.90
2018-07-14T00:48:13.159Z,99.90
2018-07-14T00:53:16.448Z,99.90
2018-07-14T00:58:19.905Z,99.90
2018-07-14T01:03:23.182Z,99.90
2018-07-14T01:08:26.529Z,99.90
2018-07-14T01:13:30.391Z,99.90
2018-07-14T01:18:34.192Z,99.90
2018-07-14T01:23:37.472Z,99.90
2018-07-14T01:28:42.126Z,99.90
2018-07-14T01:33:45.796Z,99.90
2018-07-14T01:38:49.547Z,99.90
2018-07-14T01:43:53.538Z,99.90
2018-07-14T13:14:55.941Z,73.90
2018-07-14T13:19:59.204Z,74.70
2018-07-14T13:30:08.429Z,71.80
2018-07-14T13:35:11.924Z,70.30
2018-07-14T13:40:16.557Z,69.70
2018-07-14T13:45:20.280Z,66.20
2018-07-14T13:50:27.405Z,64.40
2018-07-14T13:55:34.096Z,61.60
2018-07-14T14:10:45.340Z,64.90
2018-07-14T14:15:48.690Z,65.60
2018-07-14T14:20:53.832Z,66.00
2018-07-14T14:25:58.321Z,63.10
2018-07-14T14:31:02.273Z,61.40
2018-07-14T14:36:06.172Z,61.30
2018-07-14T14:41:10.059Z,63.10
2018-07-14T14:46:13.364Z,63.30
2018-07-14T14:51:16.634Z,64.20
2018-07-14T14:56:19.929Z,60.90
2018-07-14T15:01:23.187Z,60.20
2018-07-14T15:11:29.463Z,63.10
2018-07-14T15:16:32.778Z,63.90
2018-07-14T15:21:37.002Z,53.40
2018-07-14T15:26:40.727Z,53.00
2018-07-14T15:31:45.764Z,49.90
2018-07-14T15:36:49.082Z,49.10
2018-07-14T15:41:55.301Z,48.40
2018-07-14T15:47:00.133Z,50.30
2018-07-14T15:52:05.679Z,52.10
2018-07-14T15:57:11.181Z,54.90
2018-07-14T16:02:16.754Z,53.80
2018-07-14T16:07:23.216Z,53.50
2018-07-14T16:12:29.301Z,56.30
2018-07-14T16:17:34.484Z,54.00
2018-07-14T16:22:39.796Z,53.80
2018-07-14T16:27:44.770Z,53.10
2018-07-14T16:32:48.577Z,52.80
2018-07-14T16:37:54.518Z,51.40
2018-07-14T16:42:59.671Z,51.30
2018-07-14T16:48:04.785Z,50.80
2018-07-14T16:53:09.681Z,48.00
2018-07-14T16:58:14.718Z,47.80
2018-07-14T17:03:20.038Z,48.50
2018-07-14T17:08:23.872Z,48.20
2018-07-14T17:13:28.617Z,50.30
2018-07-14T17:18:33.804Z,50.80
2018-07-14T17:23:38.894Z,51.30
2018-07-14T17:28:42.148Z,52.80
2018-07-14T17:33:47.469Z,51.70
2018-07-14T17:38:50.782Z,53.70
2018-07-14T17:48:57.068Z,54.40
2018-07-14T17:54:00.338Z,55.40
2018-07-14T17:59:03.598Z,56.20
2018-07-14T18:04:21.328Z,57.60
2018-07-14T18:09:27.492Z,58.50
2018-07-14T18:14:32.688Z,59.90
2018-07-14T18:19:36.734Z,62.70
2018-07-14T18:24:40.000Z,62.60
2018-07-14T18:29:44.366Z,63.10
2018-07-14T18:34:48.184Z,63.20
2018-07-14T18:39:51.606Z,65.20
2018-07-14T18:44:56.449Z,67.00
2018-07-14T18:49:59.746Z,69.20
2018-07-14T18:55:04.770Z,70.20
2018-07-14T19:00:09.893Z,71.30
2018-07-14T19:05:15.808Z,74.00
2018-07-14T19:10:20.800Z,77.70
2018-07-14T19:15:25.955Z,80.10
2018-07-14T19:20:31.238Z,80.50
2018-07-14T19:25:34.599Z,82.00
2018-07-14T19:30:37.882Z,79.80
2018-07-14T19:35:47.783Z,80.10
2018-07-14T19:40:51.027Z,81.00
2018-07-14T19:45:56.291Z,81.50
2018-07-14T19:50:59.825Z,81.30
2018-07-14T19:56:04.908Z,84.20
2018-07-14T20:01:08.715Z,88.20
2018-07-14T20:06:18.685Z,89.20
2018-07-14T20:16:32.589Z,89.00
2018-07-14T20:21:37.803Z,90.20
2018-07-14T20:26:43.515Z,90.50
2018-07-14T20:31:49.084Z,90.90
2018-07-14T20:36:55.717Z,92.00
2018-07-14T20:41:59.140Z,92.40
2018-07-14T20:47:03.747Z,92.90
2018-07-14T20:52:07.625Z,93.30
2018-07-14T20:57:12.008Z,94.30
2018-07-14T21:02:15.853Z,94.00
2018-07-14T21:07:19.528Z,93.90
2018-07-14T21:17:26.210Z,94.60
2018-07-14T21:22:29.535Z,95.10
2018-07-14T21:27:33.299Z,95.40
2018-07-14T21:37:40.428Z,95.40
2018-07-14T21:47:50.310Z,95.60
2018-07-14T21:52:53.897Z,95.60
2018-07-14T22:03:05.304Z,96.90
2018-07-14T22:13:13.732Z,99.90
2018-07-14T22:18:17.543Z,99.90
2018-07-14T22:33:28.300Z,99.90
2018-07-14T22:38:31.732Z,99.90
2018-07-14T22:43:35.328Z,99.90
2018-07-14T22:48:38.672Z,99.90
2018-07-14T22:53:41.971Z,99.90
2018-07-14T22:58:45.345Z,99.90
2018-07-14T23:03:52.252Z,99.90
2018-07-14T23:08:55.559Z,99.90
2018-07-14T23:19:03.017Z,99.90
2018-07-14T23:24:06.353Z,99.90
2018-07-14T23:29:09.621Z,99.90
2018-07-14T23:34:16.355Z,99.90
2018-07-14T23:39:19.642Z,99.90
2018-07-14T23:49:25.953Z,99.90
2018-07-14T23:54:29.224Z,99.90
2018-07-14T23:59:32.500Z,99.90
